Time;durP1;ratioP1;P1;durP2;ratioP2;P2;SDS_P1;SDS_P2;PMS_P1;PMS_P2;Temp;Humidity;BMP_temperature;BMP_pressure;BME280_temperature;BME280_humidity;BME280_pressure;Samples;Min_cycle;Max_cycle;Signal;HPM_P1;HPM_P2
2023/03/03 02:03:55;;;;;;;19.75;13.10;;;4.30;99.90;;;;;;6145018;22;2096298;-83
2023/03/03 02:06:27;;;;;;;21.13;13.90;;;4.30;99.90;;;;;;6219126;23;20367;-83
2023/03/03 02:09:04;;;;;;;21.25;15.52;;;4.10;99.90;;;;;;6219672;23;20370;-83
2023/03/03 02:11:35;;;;;;;18.83;14.13;;;3.90;99.90;;;;;;6222945;23;20893;-83
2023/03/03 02:14:02;;;;;;;18.48;14.63;;;4.20;99.90;;;;;;6220864;23;20402;-83
2023/03/03 02:16:29;;;;;;;18.63;14.07;;;4.20;99.90;;;;;;6225457;23;20418;-83
2023/03/03 02:18:56;;;;;;;17.15;12.98;;;4.40;99.90;;;;;;6221198;23;20394;-84
2023/03/03 02:21:27;;;;;;;17.20;13.20;;;4.50;99.90;;;;;;6219759;23;20378;-83
2023/03/03 02:24:20;;;;;;;19.00;14.55;;;4.20;99.90;;;;;;6218608;23;20416;-83
2023/03/03 02:26:47;;;;;;;18.20;14.00;;;4.10;99.90;;;;;;6219065;23;20398;-83
2023/03/03 02:29:14;;;;;;;21.48;15.30;;;3.90;99.90;;;;;;6222215;23;20370;-83
2023/03/03 02:31:42;;;;;;;17.95;12.48;;;4.10;99.90;;;;;;6221193;23;20394;-83
2023/03/03 02:34:10;;;;;;;18.83;13.10;;;4.30;99.90;;;;;;6225408;23;20407;-83
2023/03/03 02:36:38;;;;;;;17.65;12.43;;;4.20;99.90;;;;;;6226249;23;20370;-83
2023/03/03 02:39:17;;;;;;;14.63;11.02;;;4.10;99.90;;;;;;6223528;23;20405;-83
2023/03/03 02:41:43;;;;;;;16.70;11.90;;;4.10;99.90;;;;;;6225331;23;20429;-83
2023/03/03 02:44:13;;;;;;;16.43;10.77;;;4.30;99.90;;;;;;6222974;23;20409;-83
2023/03/03 02:46:42;;;;;;;14.70;10.55;;;4.50;99.90;;;;;;6224875;23;20436;-83
2023/03/03 02:49:12;;;;;;;16.65;10.93;;;4.50;99.90;;;;;;6222410;23;20363;-84
2023/03/03 02:51:39;;;;;;;15.88;11.10;;;4.50;99.90;;;;;;6223266;23;20371;-83
2023/03/03 02:54:07;;;;;;;14.95;11.18;;;4.20;99.90;;;;;;6221557;23;20378;-84
2023/03/03 02:56:34;;;;;;;15.55;11.77;;;4.10;99.90;;;;;;6223217;23;20374;-83
2023/03/03 02:59:02;;;;;;;12.07;8.07;;;4.00;99.90;;;;;;6223314;23;20379;-84
2023/03/03 03:01:30;;;;;;;8.45;6.50;;;3.90;99.90;;;;;;6224996;23;20426;-83
2023/03/03 03:03:58;;;;;;;6.97;5.25;;;4.20;99.90;;;;;;6223763;23;20425;-83
2023/03/03 03:06:25;;;;;;;9.18;4.97;;;4.30;99.90;;;;;;6224391;23;20382;-83
2023/03/03 03:08:52;;;;;;;10.27;6.93;;;4.50;99.90;;;;;;6223559;23;20379;-83
2023/03/03 03:11:19;;;;;;;9.30;6.87;;;4.50;99.90;;;;;;6225305;23;20448;-83
2023/03/03 03:13:45;;;;;;;8.38;6.65;;;4.60;99.90;;;;;;6229018;23;20371;-83
2023/03/03 03:16:12;;;;;;;8.98;6.88;;;4.60;99.90;;;;;;6221321;23;20393;-83
2023/03/03 03:18:39;;;;;;;10.93;7.50;;;4.50;99.90;;;;;;6222918;23;20366;-83
2023/03/03 03:21:11;;;;;;;10.10;7.90;;;4.50;99.90;;;;;;6221796;23;20494;-83
2023/03/03 03:23:39;;;;;;;11.02;7.18;;;4.30;99.90;;;;;;6221167;23;20405;-84
2023/03/03 03:26:06;;;;;;;7.40;5.30;;;4.20;99.90;;;;;;6218886;23;20382;-83
2023/03/03 03:28:33;;;;;;;9.20;5.60;;;4.30;99.90;;;;;;6217704;23;20367;-83
2023/03/03 03:31:01;;;;;;;7.38;5.60;;;4.40;99.90;;;;;;6212771;23;20750;-82
2023/03/03 03:33:28;;;;;;;7.15;5.03;;;4.50;99.90;;;;;;6210711;23;20390;-81
2023/03/03 03:35:56;;;;;;;6.32;4.63;;;4.50;99.90;;;;;;6209248;23;20407;-81
2023/03/03 03:38:25;;;;;;;5.68;4.55;;;4.60;99.90;;;;;;6210690;23;20390;-81
2023/03/03 03:40:53;;;;;;;7.47;4.97;;;4.90;99.90;;;;;;6209646;23;20397;-82
2023/03/03 03:43:21;;;;;;;7.00;4.82;;;5.00;99.90;;;;;;6210433;23;20409;-82
2023/03/03 03:45:48;;;;;;;6.60;4.75;;;5.10;99.90;;;;;;6210617;23;20429;-81
2023/03/03 03:48:15;;;;;;;6.25;4.40;;;5.00;99.90;;;;;;6211241;23;20433;-82
2023/03/03 03:50:42;;;;;;;7.05;5.00;;;5.00;99.90;;;;;;6210181;23;20410;-81
2023/03/03 03:53:09;;;;;;;5.78;4.25;;;5.00;99.90;;;;;;6208827;23;20375;-80
2023/03/03 03:55:36;;;;;;;5.85;4.60;;;5.10;99.90;;;;;;6209915;23;20371;-80
2023/03/03 03:58:03;;;;;;;7.28;3.95;;;5.10;99.90;;;;;;6209189;23;20429;-81
2023/03/03 04:00:30;;;;;;;6.00;4.10;;;5.20;99.90;;;;;;6210067;23;20402;-80
2023/03/03 04:02:57;;;;;;;5.35;4.10;;;5.30;99.90;;;;;;6209259;23;20438;-83
2023/03/03 04:05:24;;;;;;;5.70;4.30;;;5.30;99.90;;;;;;6210242;23;20693;-80
2023/03/03 04:07:51;;;;;;;6.63;4.95;;;5.40;99.90;;;;;;6210269;23;20413;-81
2023/03/03 04:10:18;;;;;;;6.83;5.03;;;5.50;99.90;;;;;;6211059;23;20387;-80
2023/03/03 04:12:45;;;;;;;7.05;4.97;;;5.70;99.90;;;;;;6210270;23;20421;-81
2023/03/03 04:15:14;;;;;;;6.13;4.55;;;5.80;99.90;;;;;;6209225;23;20379;-81
2023/03/03 04:17:41;;;;;;;6.03;4.57;;;5.60;99.90;;;;;;6210655;23;20411;-80
2023/03/03 04:20:12;;;;;;;7.80;5.63;;;5.50;99.90;;;;;;6208563;23;20398;-81
2023/03/03 04:22:39;;;;;;;9.87;7.00;;;5.20;99.90;;;;;;6210890;23;20374;-81
2023/03/03 04:25:07;;;;;;;7.15;5.45;;;4.80;99.90;;;;;;6211021;23;20405;-80
2023/03/03 04:27:35;;;;;;;8.90;6.38;;;4.90;99.90;;;;;;6211952;23;20362;-81
2023/03/03 04:30:04;;;;;;;6.63;5.05;;;5.00;99.90;;;;;;6211350;23;20704;-81
2023/03/03 04:32:32;;;;;;;10.30;7.68;;;5.40;99.90;;;;;;6211960;23;20369;-82
2023/03/03 04:35:00;;;;;;;12.93;8.73;;;5.20;99.90;;;;;;6211247;23;20370;-81
2023/03/03 04:37:35;;;;;;;12.70;8.23;;;5.00;99.90;;;;;;6212103;23;20876;-80
2023/03/03 04:40:07;;;;;;;9.27;6.63;;;5.00;99.90;;;;;;6210401;23;20395;-80
2023/03/03 04:42:34;;;;;;;13.18;7.68;;;5.20;99.90;;;;;;6211981;23;20374;-81
2023/03/03 04:45:02;;;;;;;7.40;5.45;;;5.10;99.90;;;;;;6210994;23;20390;-81
2023/03/03 04:47:31;;;;;;;7.20;5.10;;;5.60;99.90;;;;;;6211952;23;20378;-81
2023/03/03 04:49:58;;;;;;;8.13;4.75;;;5.80;99.90;;;;;;6211151;23;20381;-81
2023/03/03 04:52:25;;;;;;;6.95;4.82;;;6.10;98.70;;;;;;6211750;23;20371;-81
2023/03/03 04:54:52;;;;;;;7.53;5.20;;;6.30;97.20;;;;;;6211929;23;20378;-80
2023/03/03 04:57:18;;;;;;;6.68;4.70;;;6.30;97.00;;;;;;6210920;23;20366;-80
2023/03/03 04:59:45;;;;;;;6.18;4.85;;;6.30;96.80;;;;;;6211823;23;20394;-80
2023/03/03 05:02:13;;;;;;;6.25;4.82;;;6.30;97.60;;;;;;6210607;23;20379;-80
2023/03/03 05:04:40;;;;;;;7.28;5.60;;;6.10;99.10;;;;;;6211455;23;20781;-81
2023/03/03 05:07:07;;;;;;;9.40;6.82;;;5.60;99.90;;;;;;6210985;23;20387;-81
2023/03/03 05:09:34;;;;;;;9.02;5.63;;;5.10;99.90;;;;;;6211947;23;20433;-80
2023/03/03 05:12:01;;;;;;;7.40;5.10;;;5.10;99.90;;;;;;6212074;23;20374;-81
2023/03/03 05:14:28;;;;;;;4.85;3.90;;;5.90;99.90;;;;;;6211617;23;20457;-81
2023/03/03 05:16:55;;;;;;;6.30;4.43;;;6.30;96.20;;;;;;6210621;23;20380;-81
2023/03/03 05:19:23;;;;;;;5.70;4.38;;;6.40;94.90;;;;;;6210592;23;20363;-80
2023/03/03 05:21:49;;;;;;;6.40;4.40;;;6.30;96.20;;;;;;6211635;23;20425;-80
2023/03/03 05:24:17;;;;;;;7.60;4.78;;;6.20;97.00;;;;;;6210126;23;20402;-81
2023/03/03 05:26:43;;;;;;;6.25;4.03;;;6.10;96.80;;;;;;6211361;23;20450;-80
2023/03/03 05:29:10;;;;;;;5.18;3.80;;;6.40;94.00;;;;;;6210205;23;20387;-80
2023/03/03 05:31:37;;;;;;;7.65;3.72;;;6.50;93.70;;;;;;6211819;23;20391;-80
2023/03/03 05:34:04;;;;;;;5.78;3.70;;;6.40;95.50;;;;;;6210252;23;20375;-81
2023/03/03 05:36:31;;;;;;;5.30;3.20;;;6.20;96.90;;;;;;6211439;23;20367;-80
2023/03/03 05:38:59;;;;;;;5.57;3.30;;;6.00;98.30;;;;;;6211161;23;20760;-81
2023/03/03 05:41:26;;;;;;;4.83;3.70;;;6.40;93.50;;;;;;6211148;23;20379;-80
2023/03/03 05:43:53;;;;;;;5.97;3.40;;;6.80;90.50;;;;;;6210788;23;20423;-80
2023/03/03 05:46:20;;;;;;;5.05;3.10;;;6.70;91.30;;;;;;6210569;23;20406;-82
2023/03/03 05:48:47;;;;;;;4.73;3.10;;;6.70;92.90;;;;;;6210927;23;20471;-80
2023/03/03 05:51:14;;;;;;;5.70;3.00;;;6.40;93.90;;;;;;6210179;23;20371;-80
2023/03/03 05:53:41;;;;;;;3.83;3.10;;;6.40;91.80;;;;;;6211259;23;20663;-80
2023/03/03 05:56:08;;;;;;;4.93;3.13;;;6.80;90.30;;;;;;6209946;23;20363;-80
2023/03/03 05:58:35;;;;;;;5.07;3.05;;;7.00;85.10;;;;;;6211042;23;20445;-80
2023/03/03 06:01:02;;;;;;;6.43;3.17;;;6.90;87.20;;;;;;6211394;23;20716;-81
2023/03/03 06:03:29;;;;;;;3.90;3.20;;;7.00;85.80;;;;;;6202800;23;20367;-81
2023/03/03 06:05:55;;;;;;;4.68;3.03;;;6.90;86.30;;;;;;6209872;23;20426;-82
2023/03/03 06:08:22;;;;;;;5.45;2.30;;;6.90;88.90;;;;;;6208398;23;20402;-81
2023/03/03 06:10:49;;;;;;;5.25;2.70;;;6.30;92.90;;;;;;6210566;23;20434;-81
2023/03/03 06:13:16;;;;;;;15.05;7.25;;;5.90;96.10;;;;;;6210450;23;20425;-81
2023/03/03 06:15:43;;;;;;;7.47;4.60;;;5.70;97.30;;;;;;6210638;23;20458;-80
2023/03/03 06:18:10;;;;;;;5.00;3.20;;;6.20;92.70;;;;;;6210216;23;20750;-84
2023/03/03 06:20:37;;;;;;;7.07;3.63;;;6.40;91.40;;;;;;6210893;23;20402;-81
2023/03/03 06:23:04;;;;;;;5.65;3.88;;;6.40;91.50;;;;;;6210746;23;20429;-80
2023/03/03 06:25:34;;;;;;;5.07;3.00;;;6.30;92.20;;;;;;6185200;23;20363;-80
2023/03/03 06:28:02;;;;;;;6.72;3.38;;;6.00;96.10;;;;;;6210870;23;20585;-80
2023/03/03 06:30:29;;;;;;;4.93;3.13;;;5.10;99.90;;;;;;6211630;23;20382;-82
2023/03/03 06:32:56;;;;;;;6.10;2.97;;;4.90;99.90;;;;;;6211010;23;20367;-80
2023/03/03 06:35:23;;;;;;;5.45;3.30;;;4.50;99.90;;;;;;6209528;23;20370;-83
2023/03/03 06:37:50;;;;;;;5.80;3.45;;;5.60;96.60;;;;;;6209661;23;20378;-81
2023/03/03 06:40:17;;;;;;;3.70;3.23;;;6.10;93.10;;;;;;6210043;23;20409;-81
2023/03/03 06:42:44;;;;;;;5.70;3.40;;;6.20;92.70;;;;;;6208840;23;20367;-82
2023/03/03 06:45:12;;;;;;;4.13;2.50;;;6.50;89.50;;;;;;6208448;23;20701;-81
2023/03/03 06:47:39;;;;;;;5.03;3.10;;;6.40;91.30;;;;;;6210296;23;20449;-80
2023/03/03 06:50:08;;;;;;;6.70;3.85;;;6.20;93.60;;;;;;6210560;23;20375;-80
2023/03/03 06:52:35;;;;;;;5.90;4.10;;;6.10;95.40;;;;;;6209367;23;20832;-81
2023/03/03 06:55:17;;;;;;;7.30;4.43;;;6.00;95.40;;;;;;6210582;23;20390;-80
2023/03/03 06:57:44;;;;;;;5.10;3.17;;;5.80;97.90;;;;;;6185077;23;20389;-81
2023/03/03 07:00:18;;;;;;;6.43;3.28;;;5.70;97.80;;;;;;6210138;23;20704;-80
2023/03/03 07:02:56;;;;;;;4.97;3.58;;;5.70;97.20;;;;;;6209032;23;20378;-80
2023/03/03 07:05:25;;;;;;;4.97;3.17;;;5.80;96.40;;;;;;6208619;23;20371;-81
2023/03/03 07:07:53;;;;;;;3.95;2.85;;;6.10;93.20;;;;;;6206699;23;20394;-80
2023/03/03 07:10:29;;;;;;;4.63;2.75;;;6.60;87.30;;;;;;6210338;23;20399;-80
2023/03/03 07:13:10;;;;;;;3.80;2.70;;;6.80;85.50;;;;;;6208650;23;20370;-81
2023/03/03 07:15:37;;;;;;;4.70;2.70;;;6.90;84.10;;;;;;6208774;23;20374;-80
2023/03/03 07:18:20;;;;;;;4.85;3.47;;;7.10;83.20;;;;;;6210411;23;20401;-80
2023/03/03 07:20:47;;;;;;;5.25;3.25;;;6.90;90.90;;;;;;6209316;23;20406;-81
2023/03/03 07:23:22;;;;;;;6.15;3.70;;;6.40;96.80;;;;;;6211854;23;20366;-81
2023/03/03 07:25:50;;;;;;;6.68;3.15;;;6.40;95.80;;;;;;6208972;23;20399;-80
2023/03/03 07:28:28;;;;;;;3.08;2.55;;;6.70;91.20;;;;;;6210375;23;20765;-80
2023/03/03 07:30:56;;;;;;;4.65;2.92;;;7.10;86.60;;;;;;6209082;23;20390;-80
2023/03/03 07:33:30;;;;;;;5.07;2.88;;;7.30;79.10;;;;;;6210324;23;20381;-81
2023/03/03 07:35:58;;;;;;;4.53;2.58;;;7.60;76.30;;;;;;6209141;23;20433;-81
2023/03/03 07:38:39;;;;;;;3.92;2.45;;;7.90;72.30;;;;;;6210004;23;20379;-81
2023/03/03 07:41:24;;;;;;;2.90;2.58;;;8.10;70.40;;;;;;6209347;23;20752;-80
2023/03/03 07:43:54;;;;;;;3.92;2.20;;;8.20;70.10;;;;;;6207287;23;20786;-81
2023/03/03 07:46:42;;;;;;;3.92;1.95;;;8.40;68.60;;;;;;6210358;23;20401;-80
2023/03/03 07:49:36;;;;;;;3.53;1.90;;;8.60;64.90;;;;;;6207804;23;20449;-86
2023/03/03 07:52:28;;;;;;;4.90;2.28;;;8.60;66.50;;;;;;6209005;23;20378;-80
2023/03/03 07:54:57;;;;;;;;;;;8.80;65.40;;;;;;6211434;23;20029;-82
2023/03/03 07:57:35;;;;;;;6.97;1.98;;;8.90;69.10;;;;;;6213317;23;19994;-81
2023/03/03 08:00:17;;;;;;;3.10;1.80;;;9.10;65.10;;;;;;6213167;23;20031;-81
2023/03/03 08:03:04;;;;;;;2.42;1.80;;;9.20;64.50;;;;;;6212999;23;20024;-81
2023/03/03 08:05:37;;;;;;;6.60;2.72;;;9.40;64.20;;;;;;6213095;23;20061;-80
2023/03/03 08:08:28;;;;;;;2.15;1.65;;;9.20;72.90;;;;;;6213522;23;20047;-80
2023/03/03 08:11:00;;;;;;;3.40;2.20;;;9.50;64.70;;;;;;6212034;23;20028;-80
2023/03/03 08:13:28;;;;;;;8.60;4.75;;;9.50;69.10;;;;;;6213243;23;20028;-80
2023/03/03 08:16:06;;;;;;;5.75;4.18;;;9.30;88.10;;;;;;6212817;23;20024;-80
2023/03/03 08:18:36;;;;;;;12.82;4.43;;;9.30;78.30;;;;;;6211653;23;20394;-81
2023/03/03 08:21:23;;;;;;;;;;;8.90;86.90;;;;;;6213419;23;20059;-79
2023/03/03 08:23:52;;;;;;;8.10;4.07;;;9.00;78.50;;;;;;6212232;23;19919;-82
2023/03/03 08:26:20;;;;;;;6.15;4.03;;;9.30;77.50;;;;;;6212745;23;20074;-80
2023/03/03 08:28:47;;;;;;;9.20;5.50;;;9.60;76.20;;;;;;6212768;23;20398;-81
2023/03/03 08:31:16;;;;;;;7.67;5.93;;;9.80;82.90;;;;;;6211730;23;20465;-82
2023/03/03 08:34:03;;;;;;;5.57;4.50;;;10.20;79.10;;;;;;6210629;23;20374;-80
2023/03/03 08:36:30;;;;;;;6.75;4.65;;;10.40;73.10;;;;;;6211488;23;20394;-81
2023/03/03 08:39:00;;;;;;;5.07;3.17;;;10.70;69.30;;;;;;6211914;23;20048;-82
2023/03/03 08:41:27;;;;;;;4.25;2.90;;;11.10;61.60;;;;;;6214325;23;20028;-81
2023/03/03 08:43:54;;;;;;;5.68;3.42;;;11.60;62.30;;;;;;6210145;23;20744;-81
2023/03/03 08:46:21;;;;;;;5.18;1.75;;;11.60;59.70;;;;;;6213032;23;20358;-81
2023/03/03 08:48:48;;;;;;;4.70;2.10;;;11.10;55.10;;;;;;6211692;23;20021;-81
2023/03/03 08:51:15;;;;;;;4.07;3.50;;;11.00;57.20;;;;;;6213260;23;20386;-80
2023/03/03 08:53:42;;;;;;;;;;;10.90;65.50;;;;;;6212745;23;20399;-80
2023/03/03 08:56:09;;;;;;;;;;;10.90;68.10;;;;;;6212966;23;19922;-80
2023/03/03 08:58:36;;;;;;;;;;;11.20;69.70;;;;;;6213714;23;19920;-80
2023/03/03 09:01:03;;;;;;;;;;;11.10;67.30;;;;;;6211987;23;19986;-80
2023/03/03 09:03:29;;;;;;;;;;;11.10;69.70;;;;;;6213431;23;19974;-80
2023/03/03 09:05:56;;;;;;;;;;;11.20;71.60;;;;;;6212435;23;19915;-80
2023/03/03 09:08:23;;;;;;;;;;;11.40;68.20;;;;;;6211887;23;20382;-80
2023/03/03 09:10:50;;;;;;;;;;;11.40;68.20;;;;;;6212774;23;19974;-81
2023/03/03 09:13:18;;;;;;;;;;;11.80;63.90;;;;;;6213653;23;19916;-81
2023/03/03 09:15:45;;;;;;;;;;;11.70;65.70;;;;;;6213981;23;19926;-80
2023/03/03 09:18:24;;;;;;;;;;;11.50;66.50;;;;;;6213337;23;20298;-80
2023/03/03 09:20:53;;;;;;;5.30;3.63;;;11.70;66.10;;;;;;6213372;23;19999;-80
2023/03/03 09:23:40;;;;;;;9.43;3.90;;;11.70;63.70;;;;;;6212539;23;20075;-81
2023/03/03 09:26:27;;;;;;;7.68;4.88;;;11.50;63.10;;;;;;6210905;23;20063;-80
2023/03/03 09:28:59;;;;;;;8.20;4.18;;;11.90;63.60;;;;;;6211680;23;20032;-81
2023/03/03 09:31:35;;;;;;;8.67;3.80;;;12.00;62.30;;;;;;6212770;23;20020;-80
2023/03/03 09:34:09;;;;;;;9.55;3.80;;;11.90;64.00;;;;;;6211176;23;20362;-80
2023/03/03 09:36:37;;;;;;;10.63;4.38;;;11.70;62.90;;;;;;6211386;23;20049;-81
2023/03/03 09:39:25;;;;;;;4.60;3.22;;;12.20;58.90;;;;;;6211809;23;20103;-81
2023/03/03 09:42:27;;;;;;;7.90;4.57;;;12.10;59.00;;;;;;6211180;23;20074;-80
2023/03/03 09:45:23;;;;;;;4.97;3.25;;;12.80;57.60;;;;;;6192372;23;20100;-80
2023/03/03 09:47:58;;;;;;;5.00;3.70;;;12.90;58.10;;;;;;6212007;23;20021;-79
2023/03/03 09:50:31;;;;;;;6.43;4.13;;;13.10;56.70;;;;;;6210726;23;20379;-81
2023/03/03 09:53:11;;;;;;;;;;;13.00;57.10;;;;;;6211787;23;20020;-80
2023/03/03 09:55:57;;;;;;;9.00;5.18;;;13.10;57.80;;;;;;6212253;23;19916;-79
2023/03/03 09:59:01;;;;;;;8.05;5.32;;;13.50;58.10;;;;;;6211454;23;20096;-80
2023/03/03 10:01:37;;;;;;;;;;;12.40;59.60;;;;;;6211816;23;20020;-79
2023/03/03 10:04:41;;;;;;;10.55;5.97;;;13.10;59.40;;;;;;6211170;23;19920;-80
2023/03/03 10:07:17;;;;;;;9.98;5.00;;;13.20;59.50;;;;;;6210769;23;20044;-79
2023/03/03 10:10:14;;;;;;;5.95;4.45;;;12.50;58.40;;;;;;6211803;23;20028;-81
2023/03/03 10:13:02;;;;;;;11.68;4.68;;;12.20;57.50;;;;;;6213427;23;20016;-81
2023/03/03 10:15:48;;;;;;;10.43;4.75;;;12.30;58.70;;;;;;6210275;23;20025;-79
2023/03/03 10:18:28;;;;;;;6.07;4.32;;;12.60;60.00;;;;;;6211212;23;20024;-80
2023/03/03 10:21:07;;;;;;;;;;;12.90;58.10;;;;;;6209521;23;20035;-80
2023/03/03 10:23:50;;;;;;;7.35;4.90;;;13.30;58.70;;;;;;6212255;23;19927;-83
2023/03/03 10:26:50;;;;;;;6.93;4.70;;;13.30;57.10;;;;;;6211233;23;20414;-80
2023/03/03 10:30:02;;;;;;;7.47;4.50;;;13.50;56.10;;;;;;6210656;23;20358;-79
2023/03/03 10:33:00;;;;;;;7.18;4.55;;;13.50;57.50;;;;;;6211250;23;20024;-81
2023/03/03 10:35:49;;;;;;;7.80;5.22;;;12.80;59.40;;;;;;6211252;23;20054;-80
2023/03/03 10:38:35;;;;;;;5.63;3.95;;;13.00;59.50;;;;;;6210856;23;20056;-79
2023/03/03 10:41:19;;;;;;;7.93;3.60;;;13.30;58.80;;;;;;6211635;23;20507;-79
2023/03/03 10:44:20;;;;;;;6.88;4.30;;;13.50;56.50;;;;;;6211254;23;20442;-81
2023/03/03 10:46:53;;;;;;;8.88;3.90;;;13.30;58.60;;;;;;6211156;23;20047;-81
2023/03/03 10:49:47;;;;;;;4.50;3.53;;;12.60;57.60;;;;;;6211656;23;20391;-82
2023/03/03 10:52:25;;;;;;;6.93;4.50;;;12.60;58.10;;;;;;6210263;23;20354;-80
2023/03/03 10:55:15;;;;;;;7.18;3.53;;;13.40;57.20;;;;;;6210736;23;20063;-79
2023/03/03 10:58:15;;;;;;;6.18;3.80;;;14.00;56.60;;;;;;6211100;23;20027;-81
2023/03/03 11:01:28;;;;;;;12.13;5.13;;;14.20;55.40;;;;;;6210645;23;20024;-79
2023/03/03 11:04:32;;;;;;;6.30;3.80;;;14.20;56.40;;;;;;6204700;23;20534;-80
2023/03/03 11:07:23;;;;;;;5.30;3.50;;;14.20;53.10;;;;;;6210492;23;20034;-79
2023/03/03 11:10:04;;;;;;;4.68;3.20;;;14.40;53.70;;;;;;6210554;23;20033;-81
2023/03/03 11:13:07;;;;;;;6.80;4.15;;;14.40;53.70;;;;;;6211564;23;20359;-80
2023/03/03 11:15:43;;;;;;;3.47;3.00;;;13.60;55.20;;;;;;6210322;23;20040;-79
2023/03/03 11:18:14;;;;;;;5.53;3.35;;;14.40;54.70;;;;;;6210696;23;20021;-81
2023/03/03 11:20:50;;;;;;;9.63;4.72;;;14.50;51.80;;;;;;6210923;23;20059;-81
2023/03/03 11:23:44;;;;;;;7.07;4.40;;;14.00;52.70;;;;;;6211232;23;20099;-81
2023/03/03 11:26:47;;;;;;;6.72;3.35;;;14.20;54.80;;;;;;6186739;23;20067;-81
2023/03/03 11:29:41;;;;;;;4.25;3.38;;;14.60;54.00;;;;;;6209955;23;20113;-80
2023/03/03 11:32:33;;;;;;;7.18;3.67;;;15.30;51.20;;;;;;6210790;23;20405;-80
2023/03/03 11:35:22;;;;;;;3.33;2.80;;;15.20;52.30;;;;;;6209930;23;20067;-80
2023/03/03 11:38:13;;;;;;;5.43;2.85;;;15.10;53.20;;;;;;6208815;23;20032;-79
2023/03/03 11:41:09;;;;;;;5.57;3.15;;;15.50;51.40;;;;;;6209486;23;20026;-80
2023/03/03 11:43:51;;;;;;;4.57;3.13;;;15.20;51.10;;;;;;6197153;23;20362;-81
2023/03/03 11:46:26;;;;;;;3.80;2.30;;;15.30;50.60;;;;;;6234945;23;20052;-81
2023/03/03 11:48:57;;;;;;;9.70;3.38;;;15.50;52.20;;;;;;6210921;23;20025;-82
2023/03/03 11:51:50;;;;;;;5.85;3.67;;;14.90;51.50;;;;;;6209231;23;20048;-86
2023/03/03 11:54:37;;;;;;;5.77;3.23;;;14.40;50.60;;;;;;6202302;23;20025;-80
2023/03/03 11:57:20;;;;;;;6.85;3.47;;;15.00;52.80;;;;;;6212299;23;20095;-80
2023/03/03 12:00:15;;;;;;;4.05;3.30;;;15.40;50.30;;;;;;6211543;23;20036;-82
2023/03/03 12:03:10;;;;;;;3.95;2.97;;;15.10;50.80;;;;;;6210236;23;20363;-80
2023/03/03 12:05:57;;;;;;;3.85;2.67;;;15.30;51.40;;;;;;6210788;23;20047;-81
2023/03/03 12:08:35;;;;;;;5.63;3.17;;;15.50;51.60;;;;;;6210927;23;20020;-85
2023/03/03 12:11:07;;;;;;;4.43;3.33;;;14.50;50.70;;;;;;6210539;23;20095;-80
2023/03/03 12:14:06;;;;;;;6.82;3.00;;;15.00;53.30;;;;;;6210274;23;20032;-80
2023/03/03 12:17:00;;;;;;;5.20;2.53;;;14.90;52.30;;;;;;6210386;23;20024;-84
2023/03/03 12:19:43;;;;;;;7.53;3.05;;;14.60;50.30;;;;;;6211218;23;20358;-81
2023/03/03 12:22:43;;;;;;;4.82;3.08;;;14.90;52.10;;;;;;6207316;23;20039;-80
2023/03/03 12:25:17;;;;;;;9.52;4.38;;;15.30;50.50;;;;;;6211135;23;20021;-83
2023/03/03 12:28:04;;;;;;;7.05;2.40;;;14.60;51.20;;;;;;6211290;23;20107;-79
2023/03/03 12:30:48;;;;;;;2.17;1.80;;;15.00;49.80;;;;;;6235050;23;20032;-80
2023/03/03 12:33:24;;;;;;;;;;;15.90;49.00;;;;;;6209644;23;20470;-80
2023/03/03 12:36:01;;;;;;;2.33;1.85;;;15.80;49.10;;;;;;6210500;23;20338;-80
2023/03/03 12:38:28;;;;;;;5.13;2.05;;;16.00;48.30;;;;;;6210101;23;20100;-79
2023/03/03 12:41:08;;;;;;;6.07;2.17;;;16.20;46.30;;;;;;6211569;23;20036;-84
2023/03/03 12:43:54;;;;;;;3.88;2.00;;;15.60;47.40;;;;;;6211039;23;20099;-80
2023/03/03 12:46:42;;;;;;;5.78;3.00;;;16.00;48.80;;;;;;6213163;23;20021;-81
2023/03/03 12:49:09;;;;;;;5.97;2.75;;;15.20;48.80;;;;;;6213961;23;20044;-81
2023/03/03 12:52:05;;;;;;;4.90;2.95;;;15.20;50.70;;;;;;6200636;23;20021;-80
2023/03/03 12:54:46;;;;;;;3.83;2.30;;;15.30;50.60;;;;;;6211802;23;20051;-82
2023/03/03 12:57:57;;;;;;;6.30;2.47;;;15.00;48.80;;;;;;6211833;23;20039;-80
2023/03/03 13:00:38;;;;;;;4.30;3.13;;;15.90;50.70;;;;;;6199750;23;20028;-80
2023/03/03 13:03:30;;;;;;;2.90;2.47;;;15.90;48.40;;;;;;6212207;23;20028;-83
2023/03/03 13:06:06;;;;;;;4.55;2.28;;;15.10;47.40;;;;;;6212579;23;20035;-79
2023/03/03 13:08:35;;;;;;;7.97;2.85;;;15.60;49.80;;;;;;6212430;23;20032;-81
2023/03/03 13:11:18;;;;;;;7.03;3.78;;;15.50;48.60;;;;;;6214427;23;20028;-79
2023/03/03 13:14:22;;;;;;;8.70;3.75;;;15.10;48.90;;;;;;6211010;23;20112;-82
2023/03/03 13:16:58;;;;;;;5.25;2.83;;;15.70;49.30;;;;;;6210158;23;20366;-82
2023/03/03 13:19:45;;;;;;;7.07;3.28;;;15.70;47.40;;;;;;6212355;23;20025;-79
2023/03/03 13:22:27;;;;;;;3.92;2.45;;;16.60;48.30;;;;;;6211535;23;20359;-78
2023/03/03 13:25:05;;;;;;;3.85;2.50;;;16.50;47.50;;;;;;6211346;23;20042;-80
2023/03/03 13:27:39;;;;;;;2.72;2.17;;;16.30;46.50;;;;;;6213971;23;20020;-79
2023/03/03 13:30:17;;;;;;;3.85;2.30;;;16.60;46.50;;;;;;6211118;23;20044;-79
2023/03/03 13:33:10;;;;;;;3.40;2.40;;;17.10;44.70;;;;;;6212409;23;20090;-80
2023/03/03 13:35:43;;;;;;;2.97;2.20;;;16.20;45.80;;;;;;6211836;23;20035;-79
2023/03/03 13:38:20;;;;;;;3.83;2.17;;;16.80;46.80;;;;;;6213477;23;20099;-78
2023/03/03 13:41:03;;;;;;;3.80;2.40;;;15.70;46.60;;;;;;6237654;23;20357;-79
2023/03/03 13:43:55;;;;;;;4.03;2.67;;;16.00;47.80;;;;;;6188836;23;20028;-86
2023/03/03 13:46:40;;;;;;;4.00;2.50;;;16.30;47.20;;;;;;6212233;23;20048;-80
2023/03/03 13:49:19;;;;;;;3.30;2.20;;;15.80;45.80;;;;;;6211274;23;20059;-80
2023/03/03 13:52:14;;;;;;;4.22;2.15;;;15.90;47.40;;;;;;6211711;23;20048;-80
2023/03/03 13:55:10;;;;;;;5.50;2.35;;;16.40;47.00;;;;;;6211748;23;20025;-78
2023/03/03 13:57:58;;;;;;;4.72;2.70;;;17.10;45.50;;;;;;6211582;23;20028;-82
2023/03/03 14:00:55;;;;;;;4.80;2.80;;;16.40;44.70;;;;;;6210649;23;20037;-81
2023/03/03 14:04:00;;;;;;;4.45;2.28;;;17.30;44.00;;;;;;6211368;23;20021;-80
2023/03/03 14:06:29;;;;;;;4.28;1.90;;;15.90;45.30;;;;;;6213123;23;20024;-80
2023/03/03 14:09:21;;;;;;;7.22;2.42;;;16.80;45.70;;;;;;6189150;23;20024;-81
2023/03/03 14:11:55;;;;;;;4.75;2.30;;;16.10;46.50;;;;;;6212086;23;20090;-83
2023/03/03 14:14:26;;;;;;;3.50;2.42;;;15.20;46.50;;;;;;6211654;23;20085;-80
2023/03/03 14:17:00;;;;;;;6.00;2.42;;;16.00;47.50;;;;;;6213061;23;20027;-83
2023/03/03 14:19:41;;;;;;;4.47;2.90;;;15.90;46.10;;;;;;6213506;23;20394;-79
2023/03/03 14:22:24;;;;;;;7.25;3.13;;;15.80;48.60;;;;;;6211927;23;20359;-78
2023/03/03 14:25:07;;;;;;;5.57;2.72;;;16.70;46.00;;;;;;6210814;23;20071;-82
2023/03/03 14:27:37;;;;;;;5.07;3.40;;;15.80;45.60;;;;;;6212873;23;20028;-84
2023/03/03 14:30:39;;;;;;;18.35;11.07;;;15.50;47.10;;;;;;6207488;23;20335;-82
2023/03/03 14:33:06;;;;;;;5.85;3.35;;;15.80;47.10;;;;;;6180341;23;20024;-80
2023/03/03 14:36:10;;;;;;;9.00;4.85;;;15.10;47.70;;;;;;6213005;23;20028;-79
2023/03/03 14:38:55;;;;;;;5.27;3.47;;;15.60;47.50;;;;;;6237496;23;20104;-81
2023/03/03 14:41:37;;;;;;;5.95;3.95;;;15.30;47.80;;;;;;6212012;23;20021;-79
2023/03/03 14:44:25;;;;;;;6.43;3.08;;;15.60;48.00;;;;;;6212740;23;20043;-80
2023/03/03 14:47:22;;;;;;;5.53;4.50;;;15.80;48.10;;;;;;6212163;23;20020;-83
2023/03/03 14:49:50;;;;;;;6.95;4.95;;;15.40;48.30;;;;;;6211375;23;20351;-77
2023/03/03 14:52:21;;;;;;;6.53;5.22;;;15.20;48.20;;;;;;6212779;23;20024;-83
2023/03/03 14:54:54;;;;;;;10.07;5.68;;;15.00;48.30;;;;;;6212199;23;20394;-83
2023/03/03 14:57:47;;;;;;;5.25;3.42;;;15.10;48.50;;;;;;6213695;23;20024;-80
2023/03/03 15:00:15;;;;;;;10.85;6.00;;;15.10;48.20;;;;;;6211951;23;20336;-83
2023/03/03 15:02:57;;;;;;;3.75;2.95;;;15.30;48.50;;;;;;6212946;23;20021;-81
2023/03/03 15:05:27;;;;;;;7.88;4.47;;;15.10;47.80;;;;;;6211753;23;20017;-80
2023/03/03 15:08:02;;;;;;;5.70;3.53;;;15.40;48.60;;;;;;6213506;23;20401;-80
2023/03/03 15:10:35;;;;;;;4.22;3.00;;;16.00;47.40;;;;;;6211745;23;20505;-80
2023/03/03 15:13:21;;;;;;;7.93;3.92;;;16.60;45.30;;;;;;6210723;23;20052;-79
2023/03/03 15:16:11;;;;;;;10.25;4.03;;;16.20;46.50;;;;;;6212166;23;20029;-79
2023/03/03 15:19:29;;;;;;;14.07;5.35;;;16.20;47.40;;;;;;6210532;23;20016;-80
2023/03/03 15:22:03;;;;;;;10.65;5.22;;;15.50;48.30;;;;;;6187704;23;20335;-84
2023/03/03 15:24:42;;;;;;;15.68;5.53;;;15.10;48.10;;;;;;6212348;23;20031;-81
2023/03/03 15:27:39;;;;;;;6.22;3.95;;;14.90;48.50;;;;;;6211612;23;20031;-80
2023/03/03 15:30:34;;;;;;;14.10;5.80;;;14.90;48.50;;;;;;6206237;23;20096;-82
2023/03/03 15:33:29;;;;;;;8.00;4.57;;;14.90;48.50;;;;;;6186820;23;20025;-82
2023/03/03 15:36:10;;;;;;;10.20;5.53;;;14.80;49.00;;;;;;6211690;23;20031;-80
2023/03/03 15:38:58;;;;;;;8.00;4.80;;;14.90;48.90;;;;;;6210909;23;20514;-80
2023/03/03 15:41:27;;;;;;;7.78;3.50;;;15.40;48.90;;;;;;6236089;23;20020;-80
2023/03/03 15:44:15;;;;;;;5.70;3.58;;;15.90;47.00;;;;;;6212211;23;20021;-79